Home / US / Texas / Biggs Army Air Field

Biggs Army Air Field, TX Weather

Current Report for Thu Jun 21 2018

As of 2:51 AM CDT THU JUN 21 2018

82°F 28°cBiggs Army Air Field weather conditions : Fair

Fair

Barometer: 29.99 inHg. falling

Humidity: 46%

Wind: SE. 4mph

Wind Gust: 6mph

Wind Chill: 82°F

Dew Point: 59°F falling

Visibility: 10.00mi.

Sunrise: 6:59 AM

Sunset: 9:13 PM

Moon Phase: Waxing Gibbous Moon

Daily and Hourly Summary

Loading Biggs Army Air Field TX Summary and Hourly data for today, tonight and tomorrow...
Forecast for Biggs Army Air Field, TX:
(Forecast based on TAF for )
0133 AM CDT THU JUN 21 2018
  
OVERNIGHT MORNING AFTERNOON EVENING OVERNIGHT
Clear Clear Partly Cloudy Partly Cloudy Partly Cloudy
Clear Clear Partly
Cloudy
Partly
Cloudy
Partly
Cloudy
Original Encoded TAF:
Dated: 0133 AM CDT THU JUN 21 2018
2018/06/21 06:33
TAF KELP 210531Z 2106/2206 10010KT P6SM SKC 
     FM212100 22005KT P6SM FEW110

Temperatures Today (View More Charts)

Biggs Army Air Field, TX updates by locals

Write your own report, forecast, or traffic update:

Please note by clicking on "Post" you acknowledge that you have read the Terms of Service and the report and/or forecast you are posting is in compliance with such terms. Be respectful. An inappropriate post will be removed by a moderator. If you are not finding the information you want, please be sure to note the navigation tabs just above the breadcrumbs, which are links to other data relating to this city.